createdAt,value
2023-01-29T00:02:37.823Z,65.74
2023-01-29T00:07:40.812Z,65.94
2023-01-29T00:12:43.757Z,65.11
2023-01-29T00:17:46.750Z,63.79
2023-01-29T00:22:49.889Z,63.40
2023-01-29T00:27:52.848Z,63.51
2023-01-29T00:32:55.804Z,62.42
2023-01-29T00:37:59.422Z,62.78
2023-01-29T00:43:20.728Z,63.31
2023-01-29T00:48:23.674Z,63.25
2023-01-29T00:53:26.651Z,63.30
2023-01-29T00:58:34.467Z,63.37
2023-01-29T01:03:42.205Z,62.62
2023-01-29T01:09:04.184Z,63.21
2023-01-29T01:14:07.202Z,63.65
2023-01-29T01:19:10.701Z,63.43
2023-01-29T01:24:13.800Z,62.67
2023-01-29T01:29:16.804Z,62.24
2023-01-29T01:34:20.131Z,62.91
2023-01-29T01:39:25.079Z,62.82
2023-01-29T01:44:58.504Z,62.30
2023-01-29T01:50:33.554Z,62.27
2023-01-29T01:55:45.236Z,61.32
2023-01-29T02:00:48.545Z,61.17
2023-01-29T02:06:12.969Z,61.13
2023-01-29T02:11:17.239Z,61.48
2023-01-29T02:16:22.754Z,61.18
2023-01-29T02:22:04.845Z,62.02
2023-01-29T02:27:32.971Z,61.94
2023-01-29T02:32:58.767Z,61.67
2023-01-29T02:38:01.770Z,61.92
2023-01-29T02:43:30.254Z,62.04
2023-01-29T02:48:47.914Z,62.04
2023-01-29T02:54:44.052Z,62.22
2023-01-29T03:00:39.135Z,62.28
2023-01-29T03:05:57.217Z,62.05
2023-01-29T03:11:05.789Z,62.49
2023-01-29T03:16:41.159Z,62.61
2023-01-29T03:21:51.336Z,61.84
2023-01-29T03:27:12.690Z,61.57
2023-01-29T03:32:17.529Z,61.37
2023-01-29T03:37:44.536Z,61.01
2023-01-29T03:43:04.995Z,61.02
2023-01-29T03:48:35.690Z,61.21
2023-01-29T03:53:44.119Z,61.16
2023-01-29T03:58:59.717Z,61.10
2023-01-29T04:04:23.762Z,61.05
2023-01-29T04:09:37.981Z,60.65
2023-01-29T04:14:41.526Z,60.69
2023-01-29T04:19:45.048Z,60.51
2023-01-29T04:24:49.766Z,60.36
2023-01-29T04:30:01.713Z,60.43
2023-01-29T04:35:10.635Z,60.65
2023-01-29T04:40:39.055Z,60.40
2023-01-29T04:46:10.491Z,60.35
2023-01-29T04:51:32.644Z,60.40
2023-01-29T04:57:02.840Z,60.47
2023-01-29T05:02:08.309Z,60.18
2023-01-29T05:07:15.389Z,60.61
2023-01-29T05:12:19.095Z,60.59
2023-01-29T05:17:22.178Z,60.63
2023-01-29T05:22:26.756Z,60.78
2023-01-29T05:27:54.248Z,60.73
2023-01-29T05:32:57.240Z,61.10
2023-01-29T05:38:00.176Z,61.01
2023-01-29T05:43:03.379Z,61.07
2023-01-29T05:48:06.357Z,61.10
2023-01-29T05:53:09.567Z,61.35
2023-01-29T05:58:13.010Z,61.39
2023-01-29T06:03:15.996Z,61.62
2023-01-29T06:08:18.990Z,61.59
2023-01-29T06:13:23.650Z,61.56
2023-01-29T06:18:26.823Z,61.69
2023-01-29T06:23:30.349Z,61.74
2023-01-29T06:28:33.667Z,61.73
2023-01-29T06:33:36.596Z,61.72
2023-01-29T06:38:39.522Z,61.74
2023-01-29T06:43:45.305Z,61.81
2023-01-29T06:48:48.305Z,61.43
2023-01-29T06:53:51.284Z,61.29
2023-01-29T06:58:54.381Z,61.34
2023-01-29T07:03:57.334Z,61.39
2023-01-29T07:09:00.337Z,61.28
2023-01-29T07:14:03.572Z,61.39
2023-01-29T07:19:06.504Z,61.58
2023-01-29T07:24:09.604Z,61.70
2023-01-29T07:29:12.596Z,61.79
2023-01-29T07:34:15.562Z,62.01
2023-01-29T07:39:18.583Z,61.92
2023-01-29T07:44:21.551Z,62.11
2023-01-29T07:49:24.569Z,62.12
2023-01-29T07:54:27.532Z,62.13
2023-01-29T07:59:30.619Z,62.21
2023-01-29T08:04:33.545Z,62.44
2023-01-29T08:09:36.663Z,62.54
2023-01-29T08:14:40.572Z,62.27
2023-01-29T08:19:43.531Z,62.15
2023-01-29T08:24:54.120Z,61.80
2023-01-29T08:30:03.949Z,61.71
2023-01-29T08:35:10.143Z,61.61
2023-01-29T08:40:13.887Z,61.49
2023-01-29T08:45:17.058Z,61.45
2023-01-29T08:50:20.233Z,61.59
2023-01-29T08:55:23.332Z,61.53
2023-01-29T09:00:29.157Z,61.43
2023-01-29T09:05:32.094Z,61.41
2023-01-29T09:10:35.969Z,61.50
2023-01-29T09:15:38.939Z,61.18
2023-01-29T09:20:41.912Z,61.03
2023-01-29T09:25:44.986Z,61.23
2023-01-29T09:30:48.109Z,61.05
2023-01-29T09:35:51.162Z,60.64
2023-01-29T09:41:18.795Z,61.06
2023-01-29T09:46:46.645Z,60.81
2023-01-29T09:51:56.382Z,60.06
2023-01-29T09:57:00.848Z,60.82
2023-01-29T10:02:50.731Z,60.75
2023-01-29T10:08:33.981Z,60.45
2023-01-29T10:14:01.689Z,60.06
2023-01-29T10:19:54.007Z,60.23
2023-01-29T10:25:11.894Z,60.10
2023-01-29T10:30:40.349Z,60.20
2023-01-29T10:35:50.171Z,60.25
2023-01-29T10:41:08.268Z,60.11
2023-01-29T10:46:44.875Z,60.29
2023-01-29T10:52:31.803Z,60.51
2023-01-29T10:57:53.381Z,60.53
2023-01-29T11:02:56.482Z,60.57
2023-01-29T11:08:15.142Z,60.83
2023-01-29T11:13:20.915Z,60.96
2023-01-29T11:18:24.469Z,61.20
2023-01-29T11:23:32.263Z,61.36
2023-01-29T11:28:47.720Z,61.18
2023-01-29T11:33:54.320Z,60.93
2023-01-29T11:39:28.253Z,61.25
2023-01-29T11:44:42.412Z,61.02
2023-01-29T11:49:52.661Z,61.11
2023-01-29T11:55:26.382Z,61.30
2023-01-29T12:00:33.802Z,61.50
2023-01-29T12:05:40.439Z,61.64
2023-01-29T12:10:44.211Z,61.82
2023-01-29T12:15:49.317Z,62.36
2023-01-29T12:20:58.743Z,62.24
2023-01-29T12:26:18.038Z,61.63
2023-01-29T12:32:01.603Z,61.67
2023-01-29T12:37:46.154Z,61.72
2023-01-29T12:42:55.695Z,62.06
2023-01-29T12:48:19.459Z,62.40
2023-01-29T12:53:37.727Z,62.53
2023-01-29T12:58:49.667Z,62.85
2023-01-29T13:04:10.250Z,62.74
2023-01-29T13:09:23.194Z,62.60
2023-01-29T13:14:49.930Z,62.78
2023-01-29T13:19:58.198Z,62.45
2023-01-29T13:25:05.767Z,62.58
2023-01-29T13:30:28.237Z,62.47
2023-01-29T13:35:31.359Z,62.66
2023-01-29T13:40:36.986Z,62.49
2023-01-29T13:45:45.338Z,62.91
2023-01-29T13:50:51.028Z,63.15
2023-01-29T13:55:54.061Z,63.35
2023-01-29T14:00:58.064Z,62.84
2023-01-29T14:06:01.134Z,62.94
2023-01-29T14:11:16.477Z,62.93
2023-01-29T14:16:19.409Z,63.10
2023-01-29T14:21:28.494Z,63.47
2023-01-29T14:26:45.700Z,63.39
2023-01-29T14:31:58.489Z,63.39
2023-01-29T14:37:31.708Z,63.71
2023-01-29T14:42:44.413Z,64.04
2023-01-29T14:47:47.312Z,64.27
2023-01-29T14:52:54.124Z,64.19
2023-01-29T14:57:58.432Z,63.98
2023-01-29T15:03:05.197Z,64.06
2023-01-29T15:09:00.353Z,63.92
2023-01-29T15:14:33.227Z,64.08
2023-01-29T15:19:48.573Z,64.41
2023-01-29T15:25:15.244Z,64.37
2023-01-29T15:30:22.822Z,64.83
2023-01-29T15:35:37.357Z,65.14
2023-01-29T15:40:40.487Z,65.18
2023-01-29T15:45:43.516Z,65.27
2023-01-29T15:50:46.761Z,65.22
2023-01-29T15:55:51.771Z,65.42
2023-01-29T16:00:57.766Z,65.38
2023-01-29T16:06:02.064Z,66.28
2023-01-29T16:11:07.780Z,66.69
2023-01-29T16:16:21.781Z,66.74
2023-01-29T16:21:38.704Z,66.82
2023-01-29T16:26:50.765Z,66.38
2023-01-29T16:32:00.728Z,66.57
2023-01-29T16:37:09.094Z,67.05
2023-01-29T16:42:20.102Z,67.48
2023-01-29T16:47:36.089Z,67.75
2023-01-29T16:52:39.034Z,67.87
2023-01-29T16:57:44.145Z,67.65
2023-01-29T17:02:47.968Z,67.76
2023-01-29T17:07:51.120Z,68.12
2023-01-29T17:13:08.245Z,68.51
2023-01-29T17:18:25.116Z,68.26
2023-01-29T17:23:28.255Z,68.27
2023-01-29T17:28:31.204Z,68.37
2023-01-29T17:33:41.991Z,68.42
2023-01-29T17:38:46.330Z,68.41
2023-01-29T17:43:49.277Z,68.78
2023-01-29T17:48:52.520Z,68.78
2023-01-29T17:53:55.486Z,68.65
2023-01-29T17:58:58.441Z,68.74
2023-01-29T18:04:01.590Z,68.94
2023-01-29T18:09:05.065Z,69.29
2023-01-29T18:14:13.643Z,69.62
2023-01-29T18:19:31.174Z,69.62
2023-01-29T18:24:36.233Z,69.79
2023-01-29T18:29:39.226Z,69.48
2023-01-29T18:34:42.202Z,69.41
2023-01-29T18:39:45.190Z,69.59
2023-01-29T18:44:48.958Z,69.87
2023-01-29T18:49:52.270Z,69.70
2023-01-29T18:54:55.651Z,69.47
2023-01-29T18:59:58.571Z,69.33
2023-01-29T19:05:01.748Z,69.49
2023-01-29T19:10:12.711Z,69.56
2023-01-29T19:15:20.658Z,69.58
2023-01-29T19:20:23.851Z,69.45
2023-01-29T19:25:27.222Z,69.18
2023-01-29T19:30:30.273Z,69.28
2023-01-29T19:35:33.627Z,69.36
2023-01-29T19:40:38.982Z,69.44
2023-01-29T19:45:49.420Z,69.45
2023-01-29T19:50:59.765Z,69.59
2023-01-29T19:56:10.112Z,69.49
2023-01-29T20:01:20.287Z,69.33
2023-01-29T20:06:27.261Z,69.08
2023-01-29T20:11:31.214Z,69.30
2023-01-29T20:16:34.127Z,69.43
2023-01-29T20:21:39.176Z,69.86
2023-01-29T20:26:43.188Z,70.00
2023-01-29T20:31:46.176Z,70.04
2023-01-29T20:36:49.186Z,69.91
2023-01-29T20:41:52.215Z,69.69
2023-01-29T20:46:55.215Z,69.73
2023-01-29T20:51:58.268Z,69.91
2023-01-29T20:57:01.223Z,69.79
2023-01-29T21:02:04.349Z,69.81
2023-01-29T21:07:07.349Z,69.90
2023-01-29T21:12:11.486Z,69.90
2023-01-29T21:17:14.429Z,70.15
2023-01-29T21:22:17.478Z,70.17
2023-01-29T21:27:20.434Z,69.80
2023-01-29T21:32:23.439Z,69.74
2023-01-29T21:37:26.791Z,69.60
2023-01-29T21:42:48.444Z,69.60
2023-01-29T21:47:51.464Z,69.78
2023-01-29T21:52:54.425Z,69.99
2023-01-29T21:57:57.387Z,69.71
2023-01-29T22:03:00.548Z,69.70
2023-01-29T22:08:04.954Z,69.99
2023-01-29T22:13:08.024Z,70.16
2023-01-29T22:18:11.010Z,70.55
2023-01-29T22:23:14.096Z,70.83
2023-01-29T22:28:18.582Z,70.87
2023-01-29T22:33:21.571Z,70.91
2023-01-29T22:38:25.007Z,70.54
2023-01-29T22:43:29.336Z,70.57
2023-01-29T22:48:32.395Z,70.89
2023-01-29T22:53:54.241Z,70.93
2023-01-29T22:59:02.792Z,71.03
2023-01-29T23:04:05.805Z,70.92
2023-01-29T23:09:08.922Z,70.89
2023-01-29T23:14:11.865Z,71.28
2023-01-29T23:19:14.884Z,71.27
2023-01-29T23:24:17.831Z,71.21
2023-01-29T23:29:20.874Z,70.99
2023-01-29T23:34:24.060Z,71.02
2023-01-29T23:39:27.037Z,70.83
2023-01-29T23:44:30.039Z,70.98
2023-01-29T23:49:33.024Z,71.16
2023-01-29T23:54:36.008Z,71.29
2023-01-29T23:59:39.019Z,71.23
